Time;durP1;ratioP1;P1;durP2;ratioP2;P2;SDS_P1;SDS_P2;PMS_P1;PMS_P2;Temp;Humidity;BMP_temperature;BMP_pressure;BME280_temperature;BME280_humidity;BME280_pressure;Samples;Min_cycle;Max_cycle;Signal;HPM_P1;HPM_P2
2022/08/12 00:43:00;;;;;;;0.50;0.50;;;17.40;59.00;;;17.85;43.98;95313.22;5044871;28;20566;-78
2022/08/12 00:46:29;;;;;;;0.50;0.50;;;17.50;58.40;;;17.88;44.31;95310.91;5030777;28;20214;-78
2022/08/12 00:48:15;;;;;;;0.40;0.40;;;17.50;58.40;;;17.89;43.86;95309.88;5049410;28;20294;-79
2022/08/12 00:50:44;;;;;;;0.50;0.50;;;17.60;58.50;;;17.93;43.75;95318.16;5029436;28;20697;-78
2022/08/12 00:53:12;;;;;;;0.50;0.50;;;17.60;58.50;;;17.95;43.99;95316.13;5065982;28;20196;-78
2022/08/12 00:55:45;;;;;;;0.50;0.50;;;17.60;58.30;;;17.96;44.17;95312.44;5030618;28;20689;-78
2022/08/12 00:58:17;;;;;;;0.60;0.60;;;17.60;58.90;;;17.97;44.43;95319.38;5027174;28;20294;-78
2022/08/12 01:00:44;;;;;;;0.50;0.50;;;17.60;59.10;;;17.97;44.48;95310.59;5051611;28;20210;-78
2022/08/12 01:03:18;;;;;;;0.43;0.43;;;17.60;58.60;;;17.98;44.27;95317.53;5018060;28;20208;-79
2022/08/12 01:11:29;;;;;;;0.50;0.50;;;17.70;58.70;;;17.99;44.51;95313.84;5054482;28;20315;-78
2022/08/12 01:14:02;;;;;;;0.43;0.43;;;17.70;58.60;;;17.97;44.23;95305.28;5030352;28;20207;-78
2022/08/12 01:16:30;;;;;;;0.60;0.60;;;17.70;58.90;;;17.97;44.36;95307.94;5046941;28;20219;-78
2022/08/12 01:18:59;;;;;;;0.50;0.50;;;17.70;58.80;;;17.93;44.09;95303.06;5013538;28;20204;-78
2022/08/12 01:21:26;;;;;;;0.47;0.47;;;17.60;58.70;;;17.93;44.54;95304.91;5014733;28;20319;-79
2022/08/12 01:24:26;;;;;;;0.43;0.43;;;17.60;58.70;;;17.88;44.26;95297.66;5032151;28;20203;-78
2022/08/12 01:27:00;;;;;;;0.50;0.50;;;17.60;58.80;;;17.82;44.50;95292.44;5024483;28;20231;-78
2022/08/12 01:29:31;;;;;;;0.50;0.50;;;17.50;58.70;;;17.82;44.24;95301.22;5062477;28;20208;-78
2022/08/12 01:32:06;;;;;;;0.50;0.50;;;17.60;58.90;;;17.82;44.75;95297.72;5044769;28;20693;-78
2022/08/12 01:34:37;;;;;;;0.50;0.50;;;17.50;59.40;;;17.79;44.51;95301.66;5059829;28;20250;-79
2022/08/12 01:37:08;;;;;;;0.50;0.50;;;17.50;60.20;;;17.75;44.87;95303.16;5037007;28;20219;-78
2022/08/12 01:39:48;;;;;;;0.40;0.40;;;17.50;59.00;;;17.67;44.46;95306.13;4997434;28;20572;-78
2022/08/12 01:43:00;;;;;;;0.50;0.50;;;17.40;59.40;;;17.58;44.37;95303.78;5042270;28;20218;-78
2022/08/12 01:45:31;;;;;;;0.40;0.40;;;17.40;58.80;;;17.49;44.55;95291.91;5005892;28;20200;-78
2022/08/12 01:48:59;;;;;;;0.50;0.50;;;17.30;58.70;;;17.38;44.39;95303.25;5058520;28;20195;-78
2022/08/12 01:51:42;;;;;;;0.50;0.50;;;17.20;59.10;;;17.27;44.73;95297.69;5057907;28;20299;-78
2022/08/12 01:54:44;;;;;;;0.50;0.50;;;17.10;59.30;;;17.14;44.96;95289.91;5007388;28;20795;-78
2022/08/12 01:57:43;;;;;;;0.50;0.50;;;17.00;59.30;;;17.01;44.91;95282.13;5026771;28;20625;-79
2022/08/12 02:00:43;;;;;;;0.50;0.50;;;16.90;59.10;;;16.93;44.95;95276.09;5037270;28;21468;-78
2022/08/12 02:14:19;;;;;;;0.50;0.50;;;16.50;60.30;;;16.51;45.51;95283.06;5065645;28;20275;-78
2022/08/12 02:17:33;;;;;;;0.50;0.50;;;16.30;60.00;;;16.39;45.53;95275.03;5051105;28;20216;-78
2022/08/12 02:20:32;;;;;;;0.50;0.50;;;16.20;59.90;;;16.31;45.43;95279.59;5016389;28;20203;-78
2022/08/12 02:23:22;;;;;;;0.57;0.57;;;16.20;60.50;;;16.22;45.80;95267.69;5038107;28;20214;-78
2022/08/12 02:25:55;;;;;;;0.60;0.60;;;16.00;59.80;;;16.21;45.85;95275.81;5054390;28;20689;-79
2022/08/12 02:28:24;;;;;;;0.50;0.50;;;16.00;60.20;;;16.16;45.75;95264.06;5029506;28;20200;-78
2022/08/12 02:30:51;;;;;;;0.52;0.52;;;15.90;60.30;;;16.11;45.56;95257.78;5037606;28;20234;-79
2022/08/12 02:33:18;;;;;;;0.50;0.50;;;15.90;60.30;;;16.10;46.14;95261.47;5033561;28;20200;-78
2022/08/12 02:35:47;;;;;;;0.50;0.50;;;15.90;60.30;;;16.09;46.21;95259.88;5053127;28;20200;-78
2022/08/12 02:38:16;;;;;;;0.50;0.50;;;15.80;60.20;;;16.04;46.13;95255.22;5044258;28;20639;-77
2022/08/12 02:40:50;;;;;;;0.50;0.50;;;15.80;60.20;;;16.02;46.50;95248.53;5001064;28;20557;-77
2022/08/12 02:43:29;;;;;;;0.50;0.50;;;15.70;60.50;;;15.97;46.76;95244.69;5008680;28;20549;-78
2022/08/12 02:46:08;;;;;;;0.43;0.43;;;15.70;60.90;;;15.93;46.64;95246.16;5053925;28;20214;-78
2022/08/12 02:48:54;;;;;;;0.50;0.50;;;15.70;60.70;;;15.91;46.43;95247.41;5044988;28;20557;-78
2022/08/12 02:51:34;;;;;;;0.70;0.70;;;15.60;60.80;;;15.87;46.60;95243.53;5052550;28;20227;-77
2022/08/12 02:54:04;;;;;;;0.60;0.60;;;15.60;61.10;;;15.83;46.79;95237.88;5053988;28;20185;-77
2022/08/12 02:56:39;;;;;;;0.80;0.80;;;15.60;60.60;;;15.81;46.96;95246.00;5051279;28;20610;-77
2022/08/12 02:59:11;;;;;;;0.60;0.60;;;15.60;61.30;;;15.79;46.95;95239.31;5055467;28;20191;-78
2022/08/12 03:01:55;;;;;;;0.60;0.60;;;15.50;60.90;;;15.75;47.05;95254.00;5032675;28;20230;-78
2022/08/12 03:04:32;;;;;;;0.52;0.52;;;15.50;61.30;;;15.73;46.88;95248.13;5046604;28;20679;-78
2022/08/12 03:07:29;;;;;;;0.68;0.68;;;15.50;61.20;;;15.65;47.02;95246.56;5058001;28;20332;-77
2022/08/12 03:10:21;;;;;;;0.55;0.55;;;15.40;61.50;;;15.64;46.92;95250.22;5032757;28;20679;-78
2022/08/12 03:13:06;;;;;;;0.60;0.60;;;15.40;61.00;;;15.63;46.96;95253.88;5046676;28;20195;-78
2022/08/12 03:15:35;;;;;;;0.50;0.50;;;15.40;61.10;;;15.61;47.13;95248.00;5032641;28;20192;-76
2022/08/12 03:18:19;;;;;;;0.50;0.50;;;15.30;60.90;;;15.59;47.18;95245.56;5049715;28;20222;-78
2022/08/12 03:21:00;;;;;;;0.70;0.70;;;15.30;61.10;;;15.55;47.30;95248.84;5048242;28;20580;-78
2022/08/12 03:23:29;;;;;;;0.70;0.70;;;15.30;61.10;;;15.49;47.36;95245.22;5033972;28;20198;-78
2022/08/12 03:26:02;;;;;;;0.60;0.60;;;15.30;61.40;;;15.47;47.29;95237.53;5028085;28;20231;-78
2022/08/12 03:28:52;;;;;;;0.60;0.60;;;15.20;61.70;;;15.44;47.55;95240.59;5040735;28;20196;-78
2022/08/12 03:31:32;;;;;;;0.60;0.60;;;15.20;61.40;;;15.40;47.69;95238.59;5003092;28;20239;-78
2022/08/12 03:34:09;;;;;;;0.50;0.50;;;15.20;61.90;;;15.37;47.75;95242.47;5001046;28;20192;-78
2022/08/12 03:36:40;;;;;;;0.60;0.60;;;15.10;61.60;;;15.33;47.72;95235.97;5000258;28;20748;-76
2022/08/12 03:42:04;;;;;;;0.60;0.60;;;15.00;62.20;;;15.29;47.96;95253.31;5037021;28;20222;-78
2022/08/12 04:01:57;;;;;;;0.70;0.70;;;14.90;61.90;;;15.21;47.97;95268.38;5035218;28;20743;-78
2022/08/12 04:04:33;;;;;;;0.70;0.70;;;14.90;62.10;;;15.24;48.54;95266.34;5028753;28;20216;-78
2022/08/12 04:07:08;;;;;;;0.60;0.60;;;14.90;62.80;;;15.23;48.19;95262.09;5032288;28;20247;-78
2022/08/12 04:09:39;;;;;;;0.60;0.60;;;14.90;62.50;;;15.25;48.45;95265.34;5014256;28;20195;-78
2022/08/12 04:15:00;;;;;;;0.70;0.70;;;14.90;62.60;;;15.27;48.52;95268.56;5032676;28;20247;-78
2022/08/12 04:17:28;;;;;;;0.57;0.57;;;15.00;62.50;;;15.30;48.45;95276.06;5051856;28;20259;-78
2022/08/12 04:19:57;;;;;;;0.50;0.50;;;15.00;62.70;;;15.34;49.15;95279.91;5019413;28;20274;-78
2022/08/12 04:22:29;;;;;;;0.60;0.60;;;15.00;62.90;;;15.35;49.05;95271.75;5063494;28;20223;-78
2022/08/12 04:24:59;;;;;;;0.70;0.70;;;15.00;63.10;;;15.42;49.07;95277.00;5060733;28;20279;-78
2022/08/12 04:27:30;;;;;;;0.60;0.60;;;15.10;63.10;;;15.49;49.30;95276.94;5044686;28;20225;-78
2022/08/12 04:29:57;;;;;;;0.63;0.63;;;15.20;63.20;;;15.51;49.36;95275.75;5020791;28;20235;-76
2022/08/12 04:32:50;;;;;;;0.60;0.60;;;15.20;63.30;;;15.64;49.43;95289.88;5017221;28;20587;-78
2022/08/12 04:35:20;;;;;;;0.60;0.60;;;15.30;64.00;;;15.72;49.30;95288.81;5016050;28;20298;-77
2022/08/12 04:37:53;;;;;;;0.40;0.40;;;15.50;63.60;;;15.81;49.58;95300.75;5030784;28;20224;-78
2022/08/12 04:40:32;;;;;;;0.50;0.50;;;15.40;64.10;;;15.88;49.62;95293.63;5016007;28;20195;-78
2022/08/12 04:43:00;;;;;;;0.60;0.60;;;15.60;63.70;;;16.00;49.46;95291.88;5031844;28;20647;-77
2022/08/12 04:45:30;;;;;;;0.50;0.50;;;15.60;63.60;;;16.12;49.85;95296.47;5015566;28;20195;-78
2022/08/12 04:47:58;;;;;;;0.50;0.50;;;15.70;63.60;;;16.22;49.43;95288.03;5030045;28;20184;-78
2022/08/12 04:50:25;;;;;;;0.50;0.50;;;15.80;63.60;;;16.35;49.81;95302.97;5013243;28;20207;-78
2022/08/12 04:53:07;;;;;;;0.60;0.60;;;15.90;63.80;;;16.47;49.84;95296.72;5035596;28;20291;-78
2022/08/12 04:55:37;;;;;;;0.50;0.50;;;16.10;63.80;;;16.61;49.82;95304.53;5034134;28;20261;-79
2022/08/12 04:58:09;;;;;;;0.50;0.50;;;16.20;63.80;;;16.70;49.55;95299.75;5014847;28;20729;-78
2022/08/12 05:00:37;;;;;;;0.50;0.50;;;16.40;64.00;;;16.83;49.59;95301.47;5063271;28;20208;-78
2022/08/12 05:03:06;;;;;;;0.50;0.50;;;16.40;63.60;;;16.93;49.64;95296.47;5048171;28;20198;-78
2022/08/12 05:05:35;;;;;;;0.50;0.50;;;16.50;63.80;;;17.04;49.38;95300.22;5045597;28;20200;-79
2022/08/12 05:08:06;;;;;;;0.47;0.47;;;16.60;63.60;;;17.12;49.51;95298.09;5031527;28;20196;-78
2022/08/12 05:10:34;;;;;;;0.40;0.40;;;16.70;63.50;;;17.17;49.49;95289.44;5002262;28;20262;-79
2022/08/12 05:13:10;;;;;;;0.50;0.50;;;16.80;63.40;;;17.26;49.47;95289.97;5031330;28;20200;-78
2022/08/12 05:15:39;;;;;;;0.50;0.50;;;16.90;63.50;;;17.36;49.27;95292.09;5014260;28;20207;-79
2022/08/12 05:18:26;;;;;;;0.50;0.50;;;17.00;63.20;;;17.40;49.14;95288.72;5031153;28;20257;-78
2022/08/12 05:20:57;;;;;;;0.70;0.70;;;17.10;63.40;;;17.47;49.50;95285.19;5033293;28;20638;-78
2022/08/12 05:23:25;;;;;;;0.40;0.40;;;17.20;63.30;;;17.54;49.65;95284.06;5051306;28;20607;-79
2022/08/12 05:25:55;;;;;;;0.50;0.50;;;17.30;63.40;;;17.66;49.63;95283.28;5035387;28;20685;-79
2022/08/12 05:28:25;;;;;;;0.60;0.60;;;17.40;63.40;;;17.75;49.51;95279.28;4998159;28;20238;-78
2022/08/12 05:30:54;;;;;;;0.50;0.50;;;17.50;63.50;;;17.88;49.17;95288.84;5046778;28;20247;-78
2022/08/12 05:33:27;;;;;;;0.50;0.50;;;17.60;63.50;;;17.99;49.48;95290.78;5042664;28;20208;-77
2022/08/12 05:35:54;;;;;;;0.40;0.40;;;17.60;63.20;;;18.08;49.05;95286.72;5048334;28;20215;-78
2022/08/12 05:41:31;;;;;;;0.40;0.40;;;17.90;63.20;;;18.26;49.17;95287.69;5023958;28;20246;-79
2022/08/12 05:44:07;;;;;;;0.50;0.50;;;18.00;63.20;;;18.34;48.98;95286.50;5014355;28;20199;-79
2022/08/12 05:46:36;;;;;;;0.50;0.50;;;18.10;63.20;;;18.40;49.44;95285.59;5029740;28;20235;-78
2022/08/12 05:49:04;;;;;;;0.50;0.50;;;18.20;63.30;;;18.47;49.38;95277.47;5030988;28;20199;-78
2022/08/12 05:51:35;;;;;;;0.50;0.50;;;18.20;63.40;;;18.58;49.29;95289.97;5030637;28;20238;-79
2022/08/12 05:54:07;;;;;;;0.50;0.50;;;18.30;63.50;;;18.65;49.36;95285.34;5039863;28;20199;-79
2022/08/12 05:56:35;;;;;;;0.50;0.50;;;18.40;63.40;;;18.70;49.19;95273.97;4997639;28;20231;-77
2022/08/12 05:59:08;;;;;;;0.50;0.50;;;18.50;63.40;;;18.87;49.36;95292.66;5063190;28;20204;-79
2022/08/12 06:01:36;;;;;;;0.50;0.50;;;18.60;63.50;;;18.96;49.31;95290.50;5013969;28;20731;-78
2022/08/12 06:04:23;;;;;;;0.40;0.40;;;18.80;63.30;;;19.07;49.01;95292.31;5015826;28;20391;-79
2022/08/12 06:06:52;;;;;;;0.50;0.50;;;18.90;63.00;;;19.17;48.84;95286.38;4997192;28;20220;-79
2022/08/12 06:09:21;;;;;;;0.40;0.40;;;19.00;62.80;;;19.29;49.41;95291.66;5030726;28;20246;-79
2022/08/12 06:11:50;;;;;;;0.50;0.50;;;19.10;62.80;;;19.40;49.26;95282.03;5014098;28;20278;-79
2022/08/12 06:14:35;;;;;;;0.50;0.50;;;19.20;62.80;;;19.51;48.90;95286.47;5001031;28;20199;-78
2022/08/12 06:17:07;;;;;;;0.50;0.50;;;19.30;63.00;;;19.64;48.80;95285.34;5012940;28;20216;-78
2022/08/12 06:19:37;;;;;;;0.40;0.40;;;19.40;63.00;;;19.77;48.79;95294.91;5030711;28;20211;-78
2022/08/12 06:22:25;;;;;;;0.40;0.40;;;19.60;63.10;;;19.89;48.52;95284.22;5030957;28;20315;-79
2022/08/12 06:24:52;;;;;;;0.40;0.40;;;19.70;63.20;;;19.96;48.47;95279.56;5013560;28;20242;-79
2022/08/12 06:27:20;;;;;;;0.50;0.50;;;19.80;63.30;;;20.06;48.58;95276.25;5014199;28;20227;-79
2022/08/12 06:29:48;;;;;;;0.40;0.40;;;19.90;62.70;;;20.13;48.31;95285.66;4997748;28;20731;-79
2022/08/12 06:32:36;;;;;;;0.45;0.45;;;20.00;62.70;;;20.22;48.60;95286.06;5031754;28;20670;-79
2022/08/12 06:35:18;;;;;;;0.40;0.40;;;20.10;63.40;;;20.26;48.35;95279.22;5014810;28;20231;-79
2022/08/12 06:37:56;;;;;;;0.40;0.40;;;20.20;62.50;;;20.33;48.39;95275.56;5017121;28;20682;-79
2022/08/12 06:43:12;;;;;;;0.40;0.40;;;20.30;62.30;;;20.46;47.78;95275.22;5017983;28;20258;-79
2022/08/12 06:45:48;;;;;;;0.40;0.40;;;20.40;62.30;;;20.52;47.62;95279.56;5050944;28;20207;-79
2022/08/12 06:48:16;;;;;;;0.40;0.40;;;20.40;62.10;;;20.55;47.71;95262.28;5032647;28;20339;-79
2022/08/12 06:50:44;;;;;;;0.40;0.40;;;20.50;61.90;;;20.57;47.61;95279.66;5001403;28;20661;-79
2022/08/12 06:53:12;;;;;;;0.40;0.40;;;20.50;61.90;;;20.60;47.87;95279.16;4999331;28;20255;-78
2022/08/12 06:55:40;;;;;;;0.40;0.40;;;20.60;61.90;;;20.67;47.62;95273.63;5052619;28;20662;-78
2022/08/12 06:58:26;;;;;;;0.40;0.40;;;20.60;62.00;;;20.69;47.70;95271.53;5052304;28;20222;-79
2022/08/12 07:00:56;;;;;;;0.50;0.50;;;20.60;61.90;;;20.77;47.84;95281.00;5015744;28;20303;-79
2022/08/12 07:03:28;;;;;;;0.40;0.40;;;20.70;62.00;;;20.82;47.73;95267.72;5050993;28;20655;-78
2022/08/12 07:06:03;;;;;;;0.50;0.50;;;20.70;61.80;;;20.89;47.64;95275.56;5031594;28;20289;-78
2022/08/12 07:08:33;;;;;;;0.40;0.40;;;20.80;61.90;;;20.94;47.26;95273.72;5034875;28;20656;-79
2022/08/12 07:11:04;;;;;;;0.38;0.38;;;20.80;61.70;;;21.01;47.62;95264.75;5024215;28;20303;-80
2022/08/12 07:13:37;;;;;;;0.30;0.30;;;20.90;61.80;;;21.08;47.21;95270.69;5031492;28;20228;-80
2022/08/12 07:16:50;;;;;;;0.30;0.30;;;20.90;61.80;;;21.14;47.21;95268.91;5043241;28;20247;-79
2022/08/12 07:19:12;;;;;;;0.40;0.40;;;21.00;61.60;;;21.19;47.35;95272.44;5033397;28;20278;-80
2022/08/12 07:21:42;;;;;;;0.30;0.30;;;21.10;61.70;;;21.26;47.27;95269.56;5037337;28;20231;-79
2022/08/12 07:24:29;;;;;;;0.30;0.30;;;21.10;61.40;;;21.31;46.92;95272.28;5038019;28;20261;-80
2022/08/12 07:26:56;;;;;;;0.40;0.40;;;21.20;61.50;;;21.37;47.03;95271.28;5015809;28;20216;-80
2022/08/12 07:29:27;;;;;;;0.30;0.30;;;21.20;61.40;;;21.42;46.66;95271.34;5065787;28;20256;-80
2022/08/12 07:32:15;;;;;;;0.40;0.40;;;21.30;61.50;;;21.49;46.74;95271.13;5059903;28;20235;-79
2022/08/12 07:34:42;;;;;;;0.40;0.40;;;21.40;61.40;;;21.57;46.37;95275.25;5045787;28;20212;-79
2022/08/12 07:37:09;;;;;;;0.40;0.40;;;21.40;61.40;;;21.62;46.79;95269.13;5036394;28;20220;-81
2022/08/12 07:39:36;;;;;;;0.40;0.40;;;21.50;61.40;;;21.70;46.37;95269.50;5048898;28;20286;-79
2022/08/12 07:42:17;;;;;;;0.35;0.35;;;21.60;61.30;;;21.78;46.33;95272.78;5041288;28;20584;-79
2022/08/12 07:44:45;;;;;;;0.40;0.40;;;21.60;61.10;;;21.83;46.35;95267.47;5058728;28;20202;-80
2022/08/12 07:47:17;;;;;;;0.40;0.40;;;21.70;61.10;;;21.92;46.38;95268.59;5046003;28;20238;-80
2022/08/12 07:49:44;;;;;;;0.40;0.40;;;21.80;61.00;;;22.00;46.45;95272.69;5049063;28;20206;-78
2022/08/12 07:52:42;;;;;;;0.47;0.47;;;21.80;61.10;;;22.07;46.21;95273.28;5041805;28;20287;-79
2022/08/12 07:55:10;;;;;;;0.30;0.30;;;21.90;60.80;;;22.14;46.42;95265.84;5032203;28;20267;-80
2022/08/12 07:57:58;;;;;;;0.35;0.35;;;22.00;60.70;;;22.18;45.47;95266.13;5031622;28;20222;-79
2022/08/12 08:00:29;;;;;;;0.40;0.40;;;22.00;60.50;;;22.27;45.95;95263.81;5044461;28;20684;-79
2022/08/12 08:02:59;;;;;;;0.32;0.32;;;22.10;60.50;;;22.33;45.81;95266.22;5033914;28;20248;-78
2022/08/12 08:05:45;;;;;;;0.30;0.30;;;22.20;60.50;;;22.39;45.77;95273.25;5024302;28;20202;-78
2022/08/12 08:08:15;;;;;;;0.40;0.40;;;22.20;60.30;;;22.44;45.31;95261.00;5064208;28;20684;-80
2022/08/12 08:10:43;;;;;;;0.32;0.32;;;22.30;60.20;;;22.52;45.22;95273.84;5064751;28;20460;-80
2022/08/12 08:13:11;;;;;;;0.40;0.40;;;22.40;60.10;;;22.57;45.22;95268.56;5049988;28;20216;-80
2022/08/12 08:15:39;;;;;;;0.30;0.30;;;22.40;59.80;;;22.58;44.90;95264.78;5039012;28;20274;-79
2022/08/12 08:18:27;;;;;;;0.40;0.40;;;22.50;59.50;;;22.63;44.66;95272.03;5062309;28;20206;-79
2022/08/12 08:20:55;;;;;;;0.40;0.40;;;22.50;59.40;;;22.69;44.72;95271.00;5049999;28;20230;-80
2022/08/12 08:24:13;;;;;;;0.35;0.35;;;22.60;59.60;;;22.77;44.46;95277.75;5012553;28;20196;-79
2022/08/12 08:26:14;;;;;;;0.45;0.45;;;22.60;59.50;;;22.83;44.18;95274.03;5026978;28;20334;-80
2022/08/12 08:28:42;;;;;;;0.30;0.30;;;22.70;59.30;;;22.92;44.10;95263.63;5061732;28;20222;-79
2022/08/12 08:31:12;;;;;;;0.32;0.32;;;22.80;59.10;;;23.00;44.41;95266.59;5046755;28;20266;-81
2022/08/12 08:33:40;;;;;;;0.40;0.40;;;22.90;59.10;;;23.12;44.03;95266.38;5049066;28;20220;-78
2022/08/12 08:36:28;;;;;;;0.50;0.50;;;22.90;59.30;;;23.27;44.15;95267.53;5021842;28;20215;-80
2022/08/12 08:38:55;;;;;;;0.38;0.38;;;23.10;59.00;;;23.38;43.48;95265.69;5045105;28;20563;-80
2022/08/12 08:44:36;;;;;;;0.40;0.40;;;23.30;58.80;;;23.57;43.45;95260.63;5048961;28;20203;-78
2022/08/12 08:47:06;;;;;;;0.38;0.38;;;23.40;58.50;;;23.69;43.21;95269.19;5001665;28;20294;-79
2022/08/12 08:49:35;;;;;;;0.40;0.40;;;23.50;58.00;;;23.80;42.75;95267.34;5045188;28;20298;-78
2022/08/12 08:52:09;;;;;;;0.38;0.38;;;23.60;57.80;;;23.89;42.17;95270.28;5013005;28;20215;-79
2022/08/12 08:54:37;;;;;;;0.60;0.60;;;23.70;57.40;;;23.94;42.41;95257.75;5049190;28;20228;-80
2022/08/12 08:57:07;;;;;;;0.30;0.30;;;23.80;57.30;;;24.01;42.10;95262.84;5066445;28;20224;-79
2022/08/12 08:59:35;;;;;;;0.40;0.40;;;23.90;57.00;;;24.08;41.87;95267.91;5029302;28;20197;-79
2022/08/12 09:02:02;;;;;;;0.30;0.30;;;23.90;56.80;;;24.12;41.71;95271.66;5040451;28;20220;-80
2022/08/12 09:04:33;;;;;;;0.40;0.40;;;24.00;56.50;;;24.16;41.92;95274.59;5030790;28;20298;-80
2022/08/12 09:07:21;;;;;;;0.32;0.32;;;24.10;56.90;;;24.18;41.88;95272.47;5060832;28;20601;-80
2022/08/12 09:10:09;;;;;;;0.40;0.40;;;24.10;56.40;;;24.21;41.21;95275.41;5022606;28;20202;-79
2022/08/12 09:15:54;;;;;;;0.50;0.50;;;24.20;56.00;;;24.25;40.70;95273.78;5029172;28;20228;-81
2022/08/12 09:18:26;;;;;;;0.30;0.30;;;24.20;55.90;;;24.33;41.24;95268.97;5014247;28;20637;-80
2022/08/12 09:21:13;;;;;;;0.30;0.30;;;24.20;56.00;;;24.38;41.30;95266.28;5048028;28;20443;-80
2022/08/12 09:23:41;;;;;;;0.30;0.30;;;24.30;56.20;;;24.49;41.29;95280.50;5047546;28;20203;-80
2022/08/12 09:26:29;;;;;;;0.30;0.30;;;24.30;55.90;;;24.58;40.62;95263.56;5059289;28;20231;-80
2022/08/12 09:28:57;;;;;;;0.30;0.30;;;24.40;55.80;;;24.65;40.76;95271.31;5063878;28;20226;-80
2022/08/12 09:31:27;;;;;;;0.40;0.40;;;24.50;55.80;;;24.72;40.52;95271.88;5060904;28;20214;-79
2022/08/12 09:34:14;;;;;;;0.32;0.32;;;24.50;55.50;;;24.80;40.70;95270.50;5031246;28;20216;-81
2022/08/12 09:37:00;;;;;;;0.30;0.30;;;24.60;55.30;;;24.87;40.50;95276.38;5013744;28;20606;-80
2022/08/12 09:39:45;;;;;;;0.40;0.40;;;24.70;55.20;;;24.93;40.32;95269.91;5012519;28;20546;-80
2022/08/12 09:45:38;;;;;;;0.30;0.30;;;24.90;55.50;;;25.26;40.42;95261.44;5030398;28;20192;-81
2022/08/12 09:48:25;;;;;;;0.40;0.40;;;25.10;55.30;;;25.47;40.38;95259.47;5031248;28;20191;-81
2022/08/12 09:51:01;;;;;;;0.30;0.30;;;25.30;55.20;;;25.64;40.08;95261.00;5024670;28;20622;-80
2022/08/12 09:53:29;;;;;;;0.20;0.20;;;25.50;55.00;;;25.79;39.80;95260.88;5036590;28;20214;-78
2022/08/12 09:56:11;;;;;;;0.30;0.30;;;25.60;54.40;;;25.93;38.96;95255.69;5033409;28;20220;-78
2022/08/12 09:58:58;;;;;;;0.30;0.30;;;25.70;53.90;;;26.07;38.96;95252.38;5013688;28;20574;-80
2022/08/12 10:01:29;;;;;;;0.35;0.35;;;25.90;53.40;;;26.19;38.58;95247.41;5019071;28;20228;-80
2022/08/12 10:04:16;;;;;;;0.30;0.30;;;26.00;53.00;;;26.34;38.79;95252.66;5009424;28;20199;-80
2022/08/12 10:06:46;;;;;;;0.30;0.30;;;26.20;52.90;;;26.44;37.98;95250.94;5027554;28;20221;-79
2022/08/12 10:09:22;;;;;;;0.30;0.30;;;26.30;52.40;;;26.52;37.92;95239.56;5012904;28;20253;-80
2022/08/12 10:15:00;;;;;;;0.30;0.30;;;26.50;51.30;;;26.57;36.92;95222.56;5020600;28;20323;-80
2022/08/12 10:17:28;;;;;;;0.20;0.20;;;26.60;51.20;;;26.56;37.26;95219.06;5048585;28;20220;-79
2022/08/12 10:19:56;;;;;;;0.30;0.30;;;26.50;50.90;;;26.54;37.12;95218.56;5014773;28;20233;-80
2022/08/12 10:22:26;;;;;;;0.40;0.40;;;26.60;50.90;;;26.52;37.33;95207.28;5030589;28;20334;-79
2022/08/12 10:31:05;;;;;;;0.30;0.30;;;26.60;50.80;;;26.67;36.81;95212.50;5048213;28;20218;-79
2022/08/12 10:33:43;;;;;;;0.30;0.30;;;26.70;50.90;;;26.69;36.39;95209.50;5063829;28;20313;-79
2022/08/12 10:36:33;;;;;;;0.30;0.30;;;26.70;50.10;;;26.70;36.06;95208.44;5033224;28;20238;-78
2022/08/12 10:39:13;;;;;;;0.38;0.38;;;26.70;49.80;;;26.74;36.68;95203.28;5049521;28;20191;-79
2022/08/12 10:44:59;;;;;;;0.25;0.25;;;26.80;49.30;;;26.87;35.64;95199.09;5059997;28;20289;-80
2022/08/12 10:47:31;;;;;;;0.20;0.20;;;26.90;49.40;;;26.92;35.52;95210.59;5037333;28;20222;-79
2022/08/12 10:50:21;;;;;;;0.30;0.30;;;26.90;49.10;;;26.95;35.31;95201.16;5026826;28;20208;-80
2022/08/12 10:53:10;;;;;;;0.30;0.30;;;27.00;48.60;;;27.05;35.23;95205.59;5014332;28;20232;-79
2022/08/12 10:55:45;;;;;;;0.30;0.30;;;27.10;48.70;;;27.14;35.13;95203.88;5013711;28;20246;-79
2022/08/12 10:58:21;;;;;;;0.43;0.43;;;27.20;48.60;;;27.19;35.23;95203.00;5015615;28;20207;-79
2022/08/12 11:00:58;;;;;;;0.30;0.30;;;27.20;48.50;;;27.14;34.48;95198.47;5036509;28;20216;-78
2022/08/12 11:03:45;;;;;;;0.30;0.30;;;27.20;47.70;;;27.07;34.81;95193.44;5030346;28;20210;-78
2022/08/12 11:06:32;;;;;;;0.30;0.30;;;27.20;47.90;;;27.07;35.26;95187.28;5021433;28;20216;-78
2022/08/12 11:09:48;;;;;;;0.30;0.30;;;27.20;48.10;;;27.10;34.83;95181.28;5040873;28;20190;-79
2022/08/12 11:12:31;;;;;;;0.40;0.40;;;27.10;47.80;;;27.12;34.78;95181.81;5024385;28;20224;-78
2022/08/12 11:15:22;;;;;;;0.30;0.30;;;27.20;47.80;;;27.11;34.85;95172.94;5021871;28;20294;-77
2022/08/12 11:18:11;;;;;;;0.30;0.30;;;27.20;48.10;;;27.20;34.46;95173.09;5019766;28;20207;-78
2022/08/12 11:20:46;;;;;;;0.32;0.32;;;27.20;48.60;;;27.21;34.30;95169.31;5031130;28;20261;-78
2022/08/12 11:23:14;;;;;;;0.25;0.25;;;27.20;47.50;;;27.20;34.10;95167.69;5022404;28;20205;-79
2022/08/12 11:26:02;;;;;;;0.20;0.20;;;27.20;47.30;;;27.23;34.15;95167.09;5016555;28;20300;-79
2022/08/12 11:28:33;;;;;;;0.30;0.30;;;27.20;47.20;;;27.23;33.83;95172.50;5019242;28;20826;-80
2022/08/12 11:31:06;;;;;;;0.30;0.30;;;27.20;46.90;;;27.19;34.08;95158.03;5034812;28;20222;-79
2022/08/12 11:33:41;;;;;;;0.30;0.30;;;27.20;46.80;;;27.25;33.97;95159.53;5028854;28;20226;-78
2022/08/12 11:36:29;;;;;;;0.30;0.30;;;27.20;47.10;;;27.29;33.56;95157.06;5024245;28;20231;-78
2022/08/12 11:38:57;;;;;;;0.30;0.30;;;27.30;46.90;;;27.34;33.93;95156.97;5034332;28;20263;-78
2022/08/12 11:41:33;;;;;;;0.32;0.32;;;27.30;47.20;;;27.42;33.55;95153.66;5018259;28;20704;-78
2022/08/12 11:44:02;;;;;;;0.30;0.30;;;27.30;46.40;;;27.50;33.32;95151.41;5011293;28;20217;-78
2022/08/12 11:46:50;;;;;;;0.30;0.30;;;27.40;46.60;;;27.63;33.52;95156.03;5037232;28;20216;-79
2022/08/12 11:49:24;;;;;;;0.30;0.30;;;27.50;46.40;;;27.75;33.63;95153.66;5045787;28;20197;-78
2022/08/12 11:52:03;;;;;;;0.30;0.30;;;27.60;46.10;;;27.87;33.22;95147.00;5030371;28;20222;-79
2022/08/12 11:54:43;;;;;;;0.40;0.40;;;27.80;46.60;;;28.00;33.22;95154.31;5025776;28;20217;-79
2022/08/12 11:57:17;;;;;;;0.40;0.40;;;27.90;46.20;;;28.13;33.10;95154.69;5001624;28;20232;-78
2022/08/12 12:00:05;;;;;;;0.30;0.30;;;28.00;45.60;;;28.30;32.66;95143.31;5017471;28;20214;-79
2022/08/12 12:02:53;;;;;;;0.30;0.30;;;28.10;45.50;;;28.45;32.04;95151.09;5045099;28;20226;-79
2022/08/12 12:05:20;;;;;;;0.30;0.30;;;28.30;45.60;;;28.55;32.67;95156.28;5031330;28;20248;-79
2022/08/12 12:07:54;;;;;;;0.30;0.30;;;28.40;45.70;;;28.61;31.60;95156.97;5050048;28;20213;-78
2022/08/12 12:10:42;;;;;;;0.30;0.30;;;28.60;44.60;;;28.63;31.63;95157.47;5040514;28;20193;-79
2022/08/12 12:13:12;;;;;;;0.30;0.30;;;28.60;44.60;;;28.65;31.55;95151.78;5047327;28;20224;-80
2022/08/12 12:15:59;;;;;;;0.40;0.40;;;28.70;44.40;;;28.72;31.98;95150.31;5045344;28;20222;-78
2022/08/12 12:18:33;;;;;;;0.30;0.30;;;28.80;44.50;;;28.85;31.74;95143.28;5046302;28;20221;-79
2022/08/12 12:21:05;;;;;;;0.22;0.22;;;29.00;44.10;;;29.02;31.04;95150.75;5048269;28;20228;-78
2022/08/12 12:23:35;;;;;;;0.20;0.20;;;29.30;43.70;;;29.23;31.74;95140.28;5032206;28;20291;-78
2022/08/12 12:26:06;;;;;;;0.30;0.30;;;29.60;43.60;;;29.52;31.36;95138.31;5045723;28;20219;-79
2022/08/12 12:28:53;;;;;;;0.30;0.30;;;30.20;43.00;;;29.87;31.82;95128.50;5028041;28;20243;-78
2022/08/12 12:31:23;;;;;;;0.25;0.25;;;30.80;43.40;;;30.35;31.88;95132.38;5029783;28;20226;-78
2022/08/12 12:34:12;;;;;;;0.20;0.20;;;31.40;42.30;;;30.83;31.05;95132.69;5037683;28;20279;-79
2022/08/12 12:36:57;;;;;;;0.20;0.20;;;32.20;41.70;;;31.34;30.70;95138.50;5033045;28;20226;-77
2022/08/12 12:39:26;;;;;;;0.20;0.20;;;32.90;40.60;;;31.80;30.34;95133.53;5015128;28;20553;-78
2022/08/12 12:41:54;;;;;;;0.25;0.25;;;33.50;40.00;;;32.24;29.71;95128.78;5037673;28;20223;-78
2022/08/12 12:44:41;;;;;;;0.30;0.30;;;34.00;39.20;;;32.75;29.62;95136.19;5040109;28;20279;-78
2022/08/12 12:47:20;;;;;;;0.20;0.20;;;34.70;39.00;;;33.24;28.44;95133.03;5019399;28;20694;-78